Página principal
METAR-TAF:

METAR-TAF

Aeroportos :

Aeroporto Federico García Lorca Granada-Jaén

Granada, Espanha

latitude: 37-11N, longitude: 003-47W, altura: 567 m

Observação actual do tempo

O boletim foi feito há 19 minutos, às 11:00 UTC
Vento 5 kt de es-nordeste, variando entre norte e es-sudeste
Temperatura 31°C
Humidade 36%
Pressão 1019 hPa
Visibilidade 10 km ou mais
sem nuvens abaixo de 1500 metros e sem cumulonimbus

METAR: LEGR 191100Z 06005KT 350V120 CAVOK 31/14 Q1019

Hora: 13:19 (11:19 UTC)

Previsão

O boletim foi feito há 3 horas e 19 minutos, às 08:00 UTC
Previsão válida de 19 às 09 UTC a 20 às 09 UTC
Vento 3 kt com direcção variável
Visibilidade 10 km ou mais
sem nuvens abaixo de 1500 metros e sem cumulonimbus
Probabilidade 40% :
Temporariamente
de 19 às 12 UTC a 19 às 20 UTC
Poucas nuvensa uma altura de 3500 ft, Cumulus congestus.
aguaceiros de chuva

TAF: LEGR 190800Z 1909/2009 VRB03KT CAVOK TX35/1916Z TN20/2006Z PROB40 TEMPO 1912/1920 SHRA FEW035TCU

Observações e previsões do tempo de mais de 4000 aeroportos (mensagens METAR e TAF).

As estações disponíveis são os pontos amarelos e vermelhos sobre o mapa.

Mova o rato sobre o mapa para ver o nome da estação.

Depois clique no ponto para visualizar as observações e previsões meteorológicas.

Para alterar o mapa : clique nos botões verdes com uma cruz preta para aumentar o zoom; no botão verde com uma pitada de zoom; ou nas setas verdes para mapas adjacentes.


METAR-TAF: